createdAt,value
2024-04-30T00:00:56.405Z,6.80
2024-04-30T00:04:38.115Z,4.46
2024-04-30T00:08:19.725Z,3.81
2024-04-30T00:12:01.308Z,5.35
2024-04-30T00:15:42.966Z,5.07
2024-04-30T00:19:24.599Z,3.71
2024-04-30T00:30:26.352Z,0.00
2024-04-30T00:41:28.133Z,0.00
2024-04-30T00:52:30.011Z,0.00
2024-04-30T00:59:51.618Z,2.22
2024-04-30T01:03:33.429Z,3.28
2024-04-30T01:10:54.917Z,2.48
2024-04-30T01:14:38.507Z,2.37
2024-04-30T01:18:21.185Z,2.72
2024-04-30T01:22:02.887Z,4.88
2024-04-30T01:25:44.459Z,2.09
2024-04-30T01:29:26.048Z,2.09
2024-04-30T01:33:07.745Z,4.93
2024-04-30T01:40:29.511Z,3.93
2024-04-30T01:47:51.206Z,2.25
2024-04-30T01:51:32.740Z,2.67
2024-04-30T01:55:14.438Z,3.05
2024-04-30T01:58:56.106Z,2.62
2024-04-30T02:02:37.761Z,3.68
2024-04-30T02:13:39.550Z,5.43
2024-04-30T02:17:21.313Z,3.17
2024-04-30T02:21:02.877Z,1.90
2024-04-30T02:28:24.634Z,2.42
2024-04-30T02:32:06.448Z,3.79
2024-04-30T02:35:47.990Z,3.87
2024-04-30T02:39:29.841Z,4.04
2024-04-30T02:43:11.600Z,3.68
2024-04-30T02:50:33.205Z,2.26
2024-04-30T02:57:54.862Z,2.09
2024-04-30T03:01:36.532Z,2.96
2024-04-30T03:05:18.095Z,2.54
2024-04-30T03:08:59.698Z,2.48
2024-04-30T03:12:41.349Z,2.43
2024-04-30T03:16:23.192Z,3.95
2024-04-30T03:20:04.969Z,3.47
2024-04-30T03:23:46.895Z,4.39
2024-04-30T03:27:28.786Z,4.82
2024-04-30T03:31:10.576Z,4.19
2024-04-30T03:42:12.355Z,3.85
2024-04-30T03:45:54.121Z,4.29
2024-04-30T03:49:35.841Z,3.15
2024-04-30T03:53:17.394Z,2.71
2024-04-30T04:00:39.135Z,5.14
2024-04-30T04:04:20.939Z,3.14
2024-04-30T04:08:02.368Z,4.43
2024-04-30T04:15:24.069Z,3.18
2024-04-30T04:19:05.755Z,2.26
2024-04-30T04:26:27.420Z,4.02
2024-04-30T04:30:09.151Z,4.53
2024-04-30T04:33:50.806Z,4.02
2024-04-30T04:41:12.543Z,3.60
2024-04-30T04:44:54.132Z,2.09
2024-04-30T04:48:35.901Z,4.72
2024-04-30T04:52:17.430Z,4.18
2024-04-30T04:55:59.044Z,2.58
2024-04-30T05:14:22.680Z,3.08
2024-04-30T05:18:04.428Z,3.17
2024-04-30T05:21:46.011Z,3.10
2024-04-30T05:25:27.734Z,3.24
2024-04-30T05:29:09.282Z,2.25
2024-04-30T05:40:11.062Z,2.09
2024-04-30T05:51:12.804Z,0.00
2024-04-30T05:58:34.488Z,1.70
2024-04-30T06:02:16.097Z,2.61
2024-04-30T06:13:17.859Z,0.00
2024-04-30T06:20:39.511Z,3.49
2024-04-30T06:24:21.129Z,2.46
2024-04-30T06:28:02.815Z,2.03
2024-04-30T06:39:04.513Z,0.00
2024-04-30T06:42:46.114Z,2.62
2024-04-30T06:46:27.698Z,2.65
2024-04-30T06:50:09.432Z,3.94
2024-04-30T06:53:51.205Z,4.07
2024-04-30T06:57:33.040Z,4.08
2024-04-30T07:01:14.774Z,4.27
2024-04-30T07:04:56.684Z,5.10
2024-04-30T07:08:38.342Z,3.65
2024-04-30T07:12:20.027Z,2.99
2024-04-30T07:16:01.747Z,3.73
2024-04-30T07:19:43.292Z,4.24
2024-04-30T07:23:24.820Z,2.35
2024-04-30T07:27:06.477Z,2.97
2024-04-30T07:30:48.096Z,3.94
2024-04-30T07:34:29.892Z,3.29
2024-04-30T07:38:11.430Z,3.42
2024-04-30T07:45:33.243Z,2.81
2024-04-30T07:49:14.865Z,3.91
2024-04-30T07:52:56.532Z,3.61
2024-04-30T07:56:38.176Z,2.72
2024-04-30T08:03:59.983Z,4.69
2024-04-30T08:07:41.581Z,4.26
2024-04-30T08:11:29.169Z,3.93
2024-04-30T08:15:10.367Z,3.37
2024-04-30T08:18:46.718Z,5.98
2024-04-30T08:22:28.256Z,4.95
2024-04-30T08:26:10.132Z,6.17
2024-04-30T08:29:51.977Z,6.79
2024-04-30T08:33:33.844Z,5.40
2024-04-30T08:37:15.428Z,6.61
2024-04-30T08:40:57.240Z,6.89
2024-04-30T08:44:38.970Z,4.64
2024-04-30T08:48:20.708Z,5.10
2024-04-30T08:52:02.430Z,7.60
2024-04-30T08:55:44.163Z,5.77
2024-04-30T08:59:25.929Z,7.04
2024-04-30T09:03:07.882Z,6.45
2024-04-30T09:06:49.623Z,5.93
2024-04-30T09:10:31.458Z,6.45
2024-04-30T09:14:13.243Z,8.06
2024-04-30T09:17:55.170Z,6.72
2024-04-30T09:21:36.565Z,7.11
2024-04-30T09:25:18.603Z,8.98
2024-04-30T09:29:00.335Z,8.29
2024-04-30T09:32:42.321Z,9.21
2024-04-30T09:36:24.144Z,6.55
2024-04-30T09:40:06.079Z,8.98
2024-04-30T09:43:48.104Z,6.85
2024-04-30T09:47:30.003Z,8.14
2024-04-30T09:51:11.744Z,6.06
2024-04-30T09:54:53.644Z,10.82
2024-04-30T09:58:35.676Z,8.72
2024-04-30T10:02:17.497Z,6.38
2024-04-30T10:05:59.372Z,5.39
2024-04-30T10:09:41.304Z,6.16
2024-04-30T10:13:23.239Z,11.51
2024-04-30T10:17:05.148Z,7.23
2024-04-30T10:20:46.934Z,5.40
2024-04-30T10:24:28.790Z,9.37
2024-04-30T10:28:10.792Z,8.54
2024-04-30T10:31:54.486Z,5.61
2024-04-30T10:35:34.397Z,7.90
2024-04-30T10:39:16.244Z,7.31
2024-04-30T10:42:58.022Z,3.98
2024-04-30T10:46:40.114Z,7.41
2024-04-30T10:50:21.964Z,7.97
2024-04-30T10:54:03.717Z,7.89
2024-04-30T10:57:45.675Z,9.35
2024-04-30T11:01:27.696Z,7.45
2024-04-30T11:05:09.639Z,6.68
2024-04-30T11:08:51.304Z,6.86
2024-04-30T11:12:33.114Z,7.04
2024-04-30T11:16:16.622Z,7.13
2024-04-30T11:19:56.877Z,6.89
2024-04-30T11:23:38.591Z,3.95
2024-04-30T11:27:20.287Z,3.89
2024-04-30T11:31:02.123Z,7.28
2024-04-30T11:34:44.118Z,7.45
2024-04-30T11:38:25.682Z,5.21
2024-04-30T11:45:49.187Z,5.23
2024-04-30T11:49:30.812Z,2.67
2024-04-30T11:53:12.473Z,2.71
2024-04-30T11:56:54.130Z,3.29
2024-04-30T12:00:38.010Z,3.59
2024-04-30T12:04:17.522Z,4.81
2024-04-30T12:07:59.236Z,4.47
2024-04-30T12:11:40.988Z,2.96
2024-04-30T12:15:22.552Z,2.94
2024-04-30T12:22:44.385Z,3.54
2024-04-30T12:26:25.993Z,3.63
2024-04-30T12:30:07.712Z,4.66
2024-04-30T12:33:49.349Z,2.09
2024-04-30T12:37:30.910Z,1.96
2024-04-30T12:41:12.557Z,3.80
2024-04-30T12:44:54.107Z,2.09
2024-04-30T12:48:35.909Z,2.88
2024-04-30T12:52:17.721Z,3.65
2024-04-30T12:55:59.464Z,6.58
2024-04-30T12:59:41.043Z,3.25
2024-04-30T13:03:22.778Z,3.02
2024-04-30T13:07:04.360Z,3.57
2024-04-30T13:10:46.144Z,5.81
2024-04-30T13:14:27.920Z,7.55
2024-04-30T13:18:09.811Z,7.43
2024-04-30T13:21:51.791Z,5.90
2024-04-30T13:25:33.618Z,7.91
2024-04-30T13:29:15.339Z,6.78
2024-04-30T13:32:57.159Z,6.05
2024-04-30T13:36:38.974Z,7.08
2024-04-30T13:40:20.747Z,6.44
2024-04-30T13:44:02.497Z,6.08
2024-04-30T13:47:44.504Z,10.36
2024-04-30T13:51:26.155Z,9.67
2024-04-30T13:55:08.098Z,7.15
2024-04-30T13:58:49.896Z,8.15
2024-04-30T14:02:31.863Z,6.37
2024-04-30T14:06:13.652Z,6.51
2024-04-30T14:09:55.593Z,7.81
2024-04-30T14:13:37.432Z,5.55
2024-04-30T14:17:19.306Z,9.65
2024-04-30T14:21:01.149Z,6.20
2024-04-30T14:24:43.103Z,7.82
2024-04-30T14:28:25.055Z,7.99
2024-04-30T14:32:07.170Z,6.31
2024-04-30T14:35:48.770Z,7.00
2024-04-30T14:39:30.616Z,5.86
2024-04-30T14:43:12.610Z,7.39
2024-04-30T14:46:54.413Z,5.06
2024-04-30T14:50:36.180Z,3.59
2024-04-30T14:54:18.068Z,5.36
2024-04-30T14:57:59.826Z,3.64
2024-04-30T15:01:41.465Z,3.08
2024-04-30T15:05:23.352Z,4.58
2024-04-30T15:09:05.068Z,3.32
2024-04-30T15:12:46.686Z,3.25
2024-04-30T15:16:28.442Z,2.62
2024-04-30T15:20:10.077Z,4.42
2024-04-30T15:23:51.712Z,2.31
2024-04-30T15:27:33.451Z,3.74
2024-04-30T15:31:15.232Z,3.70
2024-04-30T15:34:56.925Z,5.32
2024-04-30T15:38:38.449Z,1.70
2024-04-30T15:49:40.297Z,0.00
2024-04-30T16:00:42.040Z,2.48
2024-04-30T16:11:43.882Z,0.00
2024-04-30T16:19:05.538Z,3.62
2024-04-30T16:26:27.340Z,6.59
2024-04-30T16:37:29.143Z,3.98
2024-04-30T16:48:31.001Z,0.00
2024-04-30T16:59:32.649Z,0.00
2024-04-30T17:10:34.374Z,0.00
2024-04-30T17:21:36.182Z,0.00
2024-04-30T17:32:37.959Z,0.00
2024-04-30T17:43:39.726Z,0.00
2024-04-30T17:54:41.506Z,0.00
2024-04-30T18:05:43.251Z,0.00
2024-04-30T18:16:45.056Z,0.00
2024-04-30T18:27:46.776Z,0.00
2024-04-30T18:38:48.497Z,0.00
2024-04-30T18:49:50.331Z,0.00
2024-04-30T19:00:52.051Z,0.00
2024-04-30T19:11:53.888Z,0.00
2024-04-30T19:22:55.583Z,0.00
2024-04-30T19:33:57.417Z,0.00
2024-04-30T19:44:59.111Z,0.00
2024-04-30T19:56:00.900Z,0.00
2024-04-30T19:59:42.476Z,2.17
2024-04-30T20:10:44.320Z,0.00
2024-04-30T20:21:46.082Z,0.00
2024-04-30T20:32:47.867Z,0.00
2024-04-30T20:43:49.535Z,0.00
2024-04-30T20:54:51.342Z,0.00
2024-04-30T21:05:53.021Z,0.00
2024-04-30T21:16:54.741Z,0.00
2024-04-30T21:27:56.674Z,2.80
2024-04-30T21:38:58.294Z,0.00
2024-04-30T21:50:00.060Z,0.00
2024-04-30T22:01:01.900Z,0.00
2024-04-30T22:12:03.591Z,0.00
2024-04-30T22:23:05.337Z,0.00
2024-04-30T22:34:07.230Z,2.75
2024-04-30T22:37:48.712Z,2.69
2024-04-30T22:48:50.571Z,0.00
2024-04-30T22:59:52.242Z,0.00
2024-04-30T23:10:54.007Z,0.00
2024-04-30T23:21:55.967Z,0.00
2024-04-30T23:25:37.385Z,7.55
2024-04-30T23:29:19.281Z,6.21
2024-04-30T23:33:00.887Z,2.09
2024-04-30T23:36:42.468Z,2.09
2024-04-30T23:40:24.054Z,2.09
2024-04-30T23:44:05.652Z,2.80
2024-04-30T23:51:27.430Z,2.23
2024-04-30T23:55:08.995Z,2.54
